createdAt,value
2018-01-26T00:00:06.658Z,1009.86
2018-01-26T00:01:06.653Z,1009.86
2018-01-26T00:02:06.652Z,1009.83
2018-01-26T00:03:06.651Z,1009.83
2018-01-26T00:04:06.648Z,1009.84
2018-01-26T00:05:06.644Z,1009.82
2018-01-26T00:06:06.646Z,1009.82
2018-01-26T00:07:06.639Z,1009.84
2018-01-26T00:08:06.637Z,1009.81
2018-01-26T00:09:06.636Z,1009.80
2018-01-26T00:10:06.635Z,1009.79
2018-01-26T00:11:06.628Z,1009.78
2018-01-26T00:12:06.623Z,1009.79
2018-01-26T00:13:06.624Z,1009.78
2018-01-26T00:14:06.622Z,1009.79
2018-01-26T00:15:06.617Z,1009.79
2018-01-26T00:16:06.619Z,1009.77
2018-01-26T00:17:06.613Z,1009.78
2018-01-26T00:18:06.607Z,1009.78
2018-01-26T00:19:06.606Z,1009.77
2018-01-26T00:20:06.604Z,1009.75
2018-01-26T00:21:06.600Z,1009.77
2018-01-26T00:22:06.599Z,1009.73
2018-01-26T00:23:06.595Z,1009.72
2018-01-26T00:24:06.592Z,1009.77
2018-01-26T00:25:06.590Z,1009.76
2018-01-26T00:26:06.587Z,1009.83
2018-01-26T00:27:06.589Z,1009.83
2018-01-26T00:28:06.580Z,1009.81
2018-01-26T00:29:06.578Z,1009.78
2018-01-26T00:30:06.578Z,1009.83
2018-01-26T00:31:06.572Z,1009.83
2018-01-26T00:32:06.571Z,1009.85
2018-01-26T00:33:06.571Z,1009.83
2018-01-26T00:34:06.563Z,1009.83
2018-01-26T00:35:06.564Z,1009.84
2018-01-26T00:36:06.561Z,1009.87
2018-01-26T00:37:06.556Z,1009.84
2018-01-26T00:38:06.556Z,1009.86
2018-01-26T00:39:06.552Z,1009.85
2018-01-26T00:40:06.560Z,1009.86
2018-01-26T00:41:06.545Z,1009.83
2018-01-26T00:42:06.542Z,1009.83
2018-01-26T00:43:06.543Z,1009.84
2018-01-26T00:44:06.536Z,1009.85
2018-01-26T00:45:06.534Z,1009.84
2018-01-26T00:46:06.532Z,1009.87
2018-01-26T00:47:06.529Z,1009.85
2018-01-26T00:48:06.525Z,1009.85
2018-01-26T00:49:06.524Z,1009.81
2018-01-26T00:50:06.527Z,1009.81
2018-01-26T00:51:06.520Z,1009.81
2018-01-26T00:52:06.515Z,1009.79
2018-01-26T00:53:06.516Z,1009.80
2018-01-26T00:54:06.509Z,1009.80
2018-01-26T00:55:06.506Z,1009.81
2018-01-26T00:56:06.503Z,1009.78
2018-01-26T00:57:06.501Z,1009.79
2018-01-26T00:58:06.497Z,1009.78
2018-01-26T00:59:06.497Z,1009.78
2018-01-26T01:00:06.493Z,1009.75
2018-01-26T01:01:06.489Z,1009.75
2018-01-26T01:02:06.486Z,1009.70
2018-01-26T01:03:06.484Z,1009.73
2018-01-26T01:04:06.481Z,1009.67
2018-01-26T01:05:06.478Z,1009.69
2018-01-26T01:06:06.476Z,1009.67
2018-01-26T01:07:06.474Z,1009.64
2018-01-26T01:08:06.470Z,1009.60
2018-01-26T01:09:06.466Z,1009.62
2018-01-26T01:10:06.467Z,1009.61
2018-01-26T01:11:06.462Z,1009.60
2018-01-26T01:12:06.459Z,1009.59
2018-01-26T01:13:06.455Z,1009.56
2018-01-26T01:14:06.457Z,1009.58
2018-01-26T01:15:06.451Z,1009.58
2018-01-26T01:16:06.448Z,1009.61
2018-01-26T01:17:06.445Z,1009.56
2018-01-26T01:18:06.442Z,1009.56
2018-01-26T01:19:06.440Z,1009.57
2018-01-26T01:20:06.433Z,1009.59
2018-01-26T01:21:06.434Z,1009.59
2018-01-26T01:22:06.429Z,1009.61
2018-01-26T01:23:06.427Z,1009.60
2018-01-26T01:24:06.423Z,1009.56
2018-01-26T01:25:06.421Z,1009.58
2018-01-26T01:26:06.419Z,1009.55
2018-01-26T01:27:06.414Z,1009.57
2018-01-26T01:28:06.411Z,1009.60
2018-01-26T01:29:06.407Z,1009.64
2018-01-26T01:30:06.405Z,1009.58
2018-01-26T01:31:06.402Z,1009.63
2018-01-26T01:32:06.401Z,1009.59
2018-01-26T01:33:06.400Z,1009.63
2018-01-26T01:34:06.394Z,1009.65
2018-01-26T01:35:06.387Z,1009.60
2018-01-26T01:36:06.388Z,1009.58
2018-01-26T01:37:06.384Z,1009.59
2018-01-26T01:38:06.386Z,1009.56
2018-01-26T01:39:06.378Z,1009.58
2018-01-26T01:40:06.375Z,1009.52
2018-01-26T01:41:06.372Z,1009.60
2018-01-26T01:42:06.370Z,1009.56
2018-01-26T01:43:06.381Z,1009.56
2018-01-26T01:44:06.367Z,1009.53
2018-01-26T01:45:06.360Z,1009.55
2018-01-26T01:46:06.356Z,1009.55
2018-01-26T01:47:06.355Z,1009.53
2018-01-26T01:48:06.352Z,1009.57
2018-01-26T01:49:06.351Z,1009.55
2018-01-26T01:50:06.345Z,1009.59
2018-01-26T01:51:06.343Z,1009.53
2018-01-26T01:52:06.339Z,1009.55
2018-01-26T01:53:06.335Z,1009.50
2018-01-26T01:54:06.332Z,1009.53
2018-01-26T01:55:06.332Z,1009.52
2018-01-26T01:56:06.328Z,1009.54
2018-01-26T01:57:06.325Z,1009.53
2018-01-26T01:58:06.349Z,1009.51
2018-01-26T01:59:06.319Z,1009.51
2018-01-26T02:00:06.314Z,1009.50
2018-01-26T02:01:06.311Z,1009.48
2018-01-26T02:02:06.309Z,1009.48
2018-01-26T02:03:06.306Z,1009.48
2018-01-26T02:04:06.304Z,1009.48
2018-01-26T02:05:06.299Z,1009.48
2018-01-26T02:06:06.299Z,1009.51
2018-01-26T02:07:06.294Z,1009.53
2018-01-26T02:08:06.287Z,1009.51
2018-01-26T02:09:06.286Z,1009.53
2018-01-26T02:10:06.282Z,1009.57
2018-01-26T02:11:06.283Z,1009.54
2018-01-26T02:12:06.304Z,1009.57
2018-01-26T02:13:06.274Z,1009.58
2018-01-26T02:14:06.274Z,1009.58
2018-01-26T02:15:06.271Z,1009.58
2018-01-26T02:16:06.270Z,1009.58
2018-01-26T02:17:06.267Z,1009.56
2018-01-26T02:18:06.259Z,1009.55
2018-01-26T02:19:06.261Z,1009.55
2018-01-26T02:20:06.254Z,1009.50
2018-01-26T02:21:06.251Z,1009.49
2018-01-26T02:22:06.251Z,1009.55
2018-01-26T02:23:06.248Z,1009.60
2018-01-26T02:24:06.244Z,1009.54
2018-01-26T02:25:06.240Z,1009.57
2018-01-26T02:26:06.236Z,1009.55
2018-01-26T02:27:06.233Z,1009.55
2018-01-26T02:28:06.229Z,1009.55
2018-01-26T02:29:06.226Z,1009.56
2018-01-26T02:30:06.228Z,1009.50
2018-01-26T02:31:06.222Z,1009.52
2018-01-26T02:32:06.218Z,1009.52
2018-01-26T02:33:06.214Z,1009.56
2018-01-26T02:34:06.212Z,1009.50
2018-01-26T02:35:06.208Z,1009.48
2018-01-26T02:36:06.205Z,1009.49
2018-01-26T02:37:06.203Z,1009.49
2018-01-26T02:38:06.201Z,1009.48
2018-01-26T02:39:06.198Z,1009.49
2018-01-26T02:40:06.197Z,1009.47
2018-01-26T02:41:06.203Z,1009.49
2018-01-26T02:42:06.190Z,1009.47
2018-01-26T02:43:06.182Z,1009.44
2018-01-26T02:44:06.182Z,1009.45
2018-01-26T02:45:06.178Z,1009.44
2018-01-26T02:46:06.179Z,1009.45
2018-01-26T02:47:06.178Z,1009.50
2018-01-26T02:48:06.170Z,1009.48
2018-01-26T02:49:06.167Z,1009.51
2018-01-26T02:50:06.164Z,1009.50
2018-01-26T02:51:06.161Z,1009.50
2018-01-26T02:52:06.158Z,1009.50
2018-01-26T02:53:06.159Z,1009.50
2018-01-26T02:54:06.160Z,1009.48
2018-01-26T02:55:06.154Z,1009.46
2018-01-26T02:56:06.146Z,1009.45
2018-01-26T02:57:06.145Z,1009.44
2018-01-26T02:58:06.139Z,1009.45
2018-01-26T02:59:06.136Z,1009.42
2018-01-26T03:00:06.133Z,1009.43
2018-01-26T03:01:06.134Z,1009.39
2018-01-26T03:02:06.122Z,1009.39
2018-01-26T03:03:06.124Z,1009.40
2018-01-26T03:04:06.120Z,1009.36
2018-01-26T03:05:06.114Z,1009.39
2018-01-26T03:06:06.116Z,1009.38
2018-01-26T03:07:06.110Z,1009.38
2018-01-26T03:08:06.106Z,1009.38
2018-01-26T03:09:06.103Z,1009.34
2018-01-26T03:10:06.102Z,1009.37
2018-01-26T03:11:06.097Z,1009.32
2018-01-26T03:12:06.089Z,1009.35
2018-01-26T03:13:06.093Z,1009.35
2018-01-26T03:14:06.090Z,1009.36
2018-01-26T03:15:06.084Z,1009.35
2018-01-26T03:16:06.081Z,1009.32
2018-01-26T03:17:06.079Z,1009.33
2018-01-26T03:18:06.076Z,1009.34
2018-01-26T03:19:06.071Z,1009.36
2018-01-26T03:20:06.067Z,1009.33
2018-01-26T03:21:06.061Z,1009.38
2018-01-26T03:22:06.068Z,1009.34
2018-01-26T03:23:06.059Z,1009.35
2018-01-26T03:24:06.055Z,1009.39
2018-01-26T03:25:06.051Z,1009.34
2018-01-26T03:26:06.047Z,1009.35
2018-01-26T03:27:06.047Z,1009.39
2018-01-26T03:28:06.044Z,1009.40
2018-01-26T03:29:06.044Z,1009.40
2018-01-26T03:30:06.038Z,1009.36
2018-01-26T03:31:06.031Z,1009.38
2018-01-26T03:32:06.031Z,1009.41
2018-01-26T03:33:06.024Z,1009.38
2018-01-26T03:34:06.020Z,1009.36
2018-01-26T03:35:06.017Z,1009.37
2018-01-26T03:36:06.012Z,1009.38
2018-01-26T03:37:06.017Z,1009.36
2018-01-26T03:38:06.010Z,1009.42
2018-01-26T03:39:06.003Z,1009.38
2018-01-26T03:40:06.000Z,1009.39
2018-01-26T03:41:05.997Z,1009.36
2018-01-26T03:42:05.993Z,1009.40
2018-01-26T03:43:05.994Z,1009.38
2018-01-26T03:44:05.986Z,1009.39
2018-01-26T03:45:05.982Z,1009.40
2018-01-26T03:46:05.983Z,1009.40
2018-01-26T03:47:05.977Z,1009.38
2018-01-26T03:48:05.971Z,1009.41
2018-01-26T03:49:05.971Z,1009.42
2018-01-26T03:50:05.965Z,1009.43
2018-01-26T03:51:05.962Z,1009.44
2018-01-26T03:52:05.958Z,1009.46
2018-01-26T03:53:05.957Z,1009.42
2018-01-26T03:54:05.949Z,1009.43
2018-01-26T03:55:05.949Z,1009.42
2018-01-26T03:56:05.943Z,1009.43
2018-01-26T03:57:05.948Z,1009.41
2018-01-26T03:58:05.938Z,1009.40
2018-01-26T03:59:05.935Z,1009.41
2018-01-26T04:00:05.934Z,1009.41
2018-01-26T04:01:05.927Z,1009.41
2018-01-26T04:02:05.928Z,1009.42
2018-01-26T04:03:05.921Z,1009.43
2018-01-26T04:04:05.918Z,1009.42
2018-01-26T04:05:05.913Z,1009.45
2018-01-26T04:06:05.911Z,1009.39
2018-01-26T04:07:05.914Z,1009.39
2018-01-26T04:08:05.902Z,1009.40
2018-01-26T04:09:05.899Z,1009.43
2018-01-26T04:10:05.896Z,1009.42
2018-01-26T04:11:05.893Z,1009.42
2018-01-26T04:12:05.890Z,1009.43
2018-01-26T04:13:05.885Z,1009.38
2018-01-26T04:14:05.882Z,1009.37
2018-01-26T04:15:05.879Z,1009.39
2018-01-26T04:16:05.876Z,1009.37
2018-01-26T04:17:05.871Z,1009.41
2018-01-26T04:18:05.873Z,1009.42
2018-01-26T04:19:05.867Z,1009.42
2018-01-26T04:20:05.860Z,1009.43
2018-01-26T04:21:05.858Z,1009.43
2018-01-26T04:22:05.854Z,1009.41
2018-01-26T04:23:05.854Z,1009.41
2018-01-26T04:24:05.846Z,1009.45
2018-01-26T04:25:05.843Z,1009.44
2018-01-26T04:26:05.841Z,1009.44
2018-01-26T04:27:05.835Z,1009.43
2018-01-26T04:28:05.833Z,1009.44
2018-01-26T04:29:05.859Z,1009.45
2018-01-26T04:30:05.827Z,1009.49
2018-01-26T04:31:05.824Z,1009.47
2018-01-26T04:32:05.818Z,1009.48
2018-01-26T04:33:05.813Z,1009.50
2018-01-26T04:34:05.809Z,1009.47
2018-01-26T04:35:05.808Z,1009.46
2018-01-26T04:36:05.800Z,1009.47
2018-01-26T04:37:05.802Z,1009.50
2018-01-26T04:38:05.794Z,1009.47
2018-01-26T04:39:05.790Z,1009.50
2018-01-26T04:40:05.784Z,1009.51
2018-01-26T04:41:05.780Z,1009.48
2018-01-26T04:42:05.780Z,1009.49
2018-01-26T04:43:05.775Z,1009.46
2018-01-26T04:44:05.768Z,1009.51
2018-01-26T04:45:05.768Z,1009.52
2018-01-26T04:46:05.762Z,1009.54
2018-01-26T04:47:05.759Z,1009.51
2018-01-26T04:48:05.753Z,1009.52
2018-01-26T04:49:05.749Z,1009.50
2018-01-26T04:50:05.746Z,1009.45
2018-01-26T04:51:05.744Z,1009.49
2018-01-26T04:52:05.736Z,1009.47
2018-01-26T04:53:05.732Z,1009.48
2018-01-26T04:54:05.730Z,1009.47
2018-01-26T04:55:05.724Z,1009.46
2018-01-26T04:56:05.721Z,1009.47
2018-01-26T04:57:05.717Z,1009.48
2018-01-26T04:58:05.712Z,1009.45
2018-01-26T04:59:05.708Z,1009.47
2018-01-26T05:00:05.705Z,1009.49
2018-01-26T05:01:05.728Z,1009.46
2018-01-26T05:02:05.694Z,1009.51
2018-01-26T05:03:05.695Z,1009.52
2018-01-26T05:04:05.689Z,1009.49
2018-01-26T05:05:05.689Z,1009.54
2018-01-26T05:06:05.679Z,1009.56
2018-01-26T05:07:05.676Z,1009.55
2018-01-26T05:08:05.672Z,1009.56
2018-01-26T05:09:05.668Z,1009.53
2018-01-26T05:10:05.664Z,1009.56
2018-01-26T05:11:05.659Z,1009.58
2018-01-26T05:12:05.653Z,1009.58
2018-01-26T05:13:05.651Z,1009.64
2018-01-26T05:14:05.646Z,1009.62
2018-01-26T05:15:05.645Z,1009.66
2018-01-26T05:16:05.639Z,1009.67
2018-01-26T05:17:05.633Z,1009.68
2018-01-26T05:18:05.631Z,1009.64
2018-01-26T05:19:05.625Z,1009.65
2018-01-26T05:20:05.626Z,1009.64
2018-01-26T05:21:05.617Z,1009.63
2018-01-26T05:22:05.612Z,1009.61
2018-01-26T05:23:05.617Z,1009.61
2018-01-26T05:24:05.601Z,1009.63
2018-01-26T05:25:05.609Z,1009.67
2018-01-26T05:26:05.595Z,1009.66
2018-01-26T05:27:05.594Z,1009.66
2018-01-26T05:28:05.587Z,1009.68
2018-01-26T05:29:05.584Z,1009.65
2018-01-26T05:30:05.580Z,1009.64
2018-01-26T05:31:05.573Z,1009.65
2018-01-26T05:32:05.571Z,1009.67
2018-01-26T05:33:05.566Z,1009.70
2018-01-26T05:34:05.565Z,1009.65
2018-01-26T05:35:05.566Z,1009.66
2018-01-26T05:36:05.557Z,1009.67
2018-01-26T05:37:05.550Z,1009.66
2018-01-26T05:38:05.544Z,1009.63
2018-01-26T05:39:05.540Z,1009.65
2018-01-26T05:40:05.533Z,1009.68
2018-01-26T05:41:05.530Z,1009.72
2018-01-26T05:42:05.525Z,1009.70
2018-01-26T05:43:05.521Z,1009.72
2018-01-26T05:44:05.525Z,1009.72
2018-01-26T05:45:05.512Z,1009.73
2018-01-26T05:46:05.511Z,1009.73
2018-01-26T05:47:05.503Z,1009.73
2018-01-26T05:48:05.500Z,1009.75
2018-01-26T05:49:05.495Z,1009.78
2018-01-26T05:50:05.495Z,1009.79
2018-01-26T05:51:05.485Z,1009.80
2018-01-26T05:52:05.480Z,1009.82
2018-01-26T05:53:05.475Z,1009.84
2018-01-26T05:54:05.470Z,1009.88
2018-01-26T05:55:05.467Z,1009.86
2018-01-26T05:56:05.465Z,1009.87
2018-01-26T05:57:05.458Z,1009.86
2018-01-26T05:58:05.453Z,1009.89
2018-01-26T05:59:05.448Z,1009.92
2018-01-26T06:00:05.446Z,1009.94
2018-01-26T06:01:05.443Z,1009.96
2018-01-26T06:02:05.435Z,1009.99
2018-01-26T06:03:05.429Z,1009.98
2018-01-26T06:04:05.425Z,1010.01
2018-01-26T06:05:05.419Z,1010.04
2018-01-26T06:06:05.417Z,1010.02
2018-01-26T06:07:05.417Z,1010.00
2018-01-26T06:08:05.410Z,1010.05
2018-01-26T06:09:05.402Z,1010.02
2018-01-26T06:10:05.398Z,1009.99
2018-01-26T06:11:05.394Z,1009.96
2018-01-26T06:12:05.390Z,1009.92
2018-01-26T06:13:05.384Z,1009.96
2018-01-26T06:14:05.380Z,1009.92
2018-01-26T06:15:05.375Z,1009.93
2018-01-26T06:16:05.370Z,1009.90
2018-01-26T06:17:05.364Z,1009.92
2018-01-26T06:18:05.366Z,1009.92
2018-01-26T06:19:05.355Z,1009.90
2018-01-26T06:20:05.352Z,1009.92
2018-01-26T06:21:05.348Z,1009.95
2018-01-26T06:22:05.425Z,1009.98
2018-01-26T06:23:05.339Z,1009.95
2018-01-26T06:24:05.333Z,1009.90
2018-01-26T06:25:05.329Z,1009.93
2018-01-26T06:26:05.326Z,1009.93
2018-01-26T06:27:05.323Z,1009.90
2018-01-26T06:28:05.317Z,1009.88
2018-01-26T06:29:05.311Z,1009.90
2018-01-26T06:30:05.307Z,1009.90
2018-01-26T06:31:05.307Z,1009.90
2018-01-26T06:32:05.306Z,1009.89
2018-01-26T06:33:05.294Z,1009.92
2018-01-26T06:34:05.291Z,1009.92
2018-01-26T06:35:05.285Z,1009.93
2018-01-26T06:36:05.282Z,1009.92
2018-01-26T06:37:05.286Z,1009.91
2018-01-26T06:38:05.273Z,1009.91
2018-01-26T06:39:05.270Z,1009.91
2018-01-26T06:40:05.262Z,1009.91
2018-01-26T06:41:05.267Z,1009.91
2018-01-26T06:42:05.258Z,1009.96
2018-01-26T06:43:05.257Z,1009.98
2018-01-26T06:44:05.250Z,1009.96
2018-01-26T06:45:05.245Z,1009.98
2018-01-26T06:46:05.243Z,1009.99
2018-01-26T06:47:05.235Z,1009.98
2018-01-26T06:48:05.231Z,1009.93
2018-01-26T06:49:05.231Z,1009.93
2018-01-26T06:50:05.224Z,1009.91
2018-01-26T06:51:05.220Z,1009.95
2018-01-26T06:52:05.216Z,1009.94
2018-01-26T06:53:05.207Z,1009.93
2018-01-26T06:54:05.208Z,1009.94
2018-01-26T06:55:05.206Z,1009.94
2018-01-26T06:56:05.198Z,1009.96
2018-01-26T06:57:05.195Z,1009.94
2018-01-26T06:58:05.192Z,1009.94
2018-01-26T06:59:05.188Z,1009.94
2018-01-26T07:00:05.183Z,1009.98
2018-01-26T07:01:05.181Z,1010.00
2018-01-26T07:02:05.176Z,1010.06
2018-01-26T07:03:05.173Z,1010.10
2018-01-26T07:04:05.166Z,1010.09
2018-01-26T07:05:05.167Z,1010.10
2018-01-26T07:06:05.161Z,1010.06
2018-01-26T07:07:05.166Z,1010.12
2018-01-26T07:08:05.153Z,1010.10
2018-01-26T07:09:05.148Z,1010.09
2018-01-26T07:10:05.146Z,1010.11
2018-01-26T07:11:05.142Z,1010.11
2018-01-26T07:12:05.141Z,1010.13
2018-01-26T07:13:05.134Z,1010.14
2018-01-26T07:14:05.146Z,1010.17
2018-01-26T07:15:05.125Z,1010.17
2018-01-26T07:16:05.121Z,1010.23
2018-01-26T07:17:05.122Z,1010.20
2018-01-26T07:18:05.115Z,1010.22
2018-01-26T07:19:05.113Z,1010.22
2018-01-26T07:20:05.106Z,1010.24
2018-01-26T07:21:05.104Z,1010.26
2018-01-26T07:22:05.100Z,1010.26
2018-01-26T07:23:05.094Z,1010.28
2018-01-26T07:24:05.092Z,1010.26
2018-01-26T07:25:05.086Z,1010.25
2018-01-26T07:26:05.083Z,1010.26
2018-01-26T07:27:05.081Z,1010.26
2018-01-26T07:28:05.076Z,1010.24
2018-01-26T07:29:05.069Z,1010.23
2018-01-26T07:30:05.066Z,1010.23
2018-01-26T07:31:05.062Z,1010.21
2018-01-26T07:32:05.060Z,1010.24
2018-01-26T07:33:05.052Z,1010.22
2018-01-26T07:34:05.049Z,1010.21
2018-01-26T07:35:05.048Z,1010.23
2018-01-26T07:36:05.045Z,1010.23
2018-01-26T07:37:05.044Z,1010.25
2018-01-26T07:38:05.034Z,1010.23
2018-01-26T07:39:05.032Z,1010.27
2018-01-26T07:40:05.027Z,1010.31
2018-01-26T07:41:05.022Z,1010.31
2018-01-26T07:42:05.018Z,1010.25
2018-01-26T07:43:05.017Z,1010.22
2018-01-26T07:44:05.012Z,1010.24
2018-01-26T07:45:05.005Z,1010.27
2018-01-26T07:46:05.005Z,1010.28
2018-01-26T07:47:05.001Z,1010.35
2018-01-26T07:48:04.998Z,1010.32
2018-01-26T07:49:04.990Z,1010.37
2018-01-26T07:50:04.988Z,1010.36
2018-01-26T07:51:04.985Z,1010.38
2018-01-26T07:52:04.981Z,1010.40
2018-01-26T07:53:04.978Z,1010.42
2018-01-26T07:54:04.971Z,1010.46
2018-01-26T07:55:04.971Z,1010.48
2018-01-26T07:56:04.965Z,1010.45
2018-01-26T07:57:04.961Z,1010.49
2018-01-26T07:58:04.964Z,1010.45
2018-01-26T07:59:04.956Z,1010.50
2018-01-26T08:00:04.950Z,1010.49
2018-01-26T08:01:04.950Z,1010.50
2018-01-26T08:02:04.944Z,1010.48
2018-01-26T08:03:05.008Z,1010.47
2018-01-26T08:04:04.938Z,1010.45
2018-01-26T08:05:04.934Z,1010.43
2018-01-26T08:06:04.929Z,1010.38
2018-01-26T08:07:04.922Z,1010.38
2018-01-26T08:08:04.921Z,1010.37
2018-01-26T08:09:04.918Z,1010.35
2018-01-26T08:10:04.914Z,1010.38
2018-01-26T08:11:04.910Z,1010.41
2018-01-26T08:12:04.906Z,1010.43
2018-01-26T08:13:04.905Z,1010.45
2018-01-26T08:14:04.900Z,1010.49
2018-01-26T08:15:04.896Z,1010.54
2018-01-26T08:16:04.891Z,1010.52
2018-01-26T08:17:04.887Z,1010.57
2018-01-26T08:18:04.886Z,1010.61
2018-01-26T08:19:04.880Z,1010.59
2018-01-26T08:20:04.876Z,1010.63
2018-01-26T08:21:04.872Z,1010.69
2018-01-26T08:22:04.867Z,1010.66
2018-01-26T08:23:04.866Z,1010.68
2018-01-26T08:24:04.859Z,1010.67
2018-01-26T08:25:04.856Z,1010.71
2018-01-26T08:26:04.851Z,1010.70
2018-01-26T08:27:04.848Z,1010.68
2018-01-26T08:28:04.847Z,1010.70
2018-01-26T08:29:04.840Z,1010.71
2018-01-26T08:30:04.840Z,1010.70
2018-01-26T08:31:04.833Z,1010.76
2018-01-26T08:32:04.828Z,1010.78
2018-01-26T08:33:04.825Z,1010.74
2018-01-26T08:34:04.818Z,1010.79
2018-01-26T08:35:04.817Z,1010.78
2018-01-26T08:36:04.812Z,1010.80
2018-01-26T08:37:04.812Z,1010.81
2018-01-26T08:38:04.807Z,1010.79
2018-01-26T08:39:04.802Z,1010.81
2018-01-26T08:40:04.798Z,1010.83
2018-01-26T08:41:04.792Z,1010.81
2018-01-26T08:42:04.797Z,1010.81
2018-01-26T08:43:04.786Z,1010.81
2018-01-26T08:44:04.782Z,1010.81
2018-01-26T08:45:04.779Z,1010.77
2018-01-26T08:46:04.777Z,1010.81
2018-01-26T08:47:04.776Z,1010.76
2018-01-26T08:48:04.770Z,1010.80
2018-01-26T08:49:04.851Z,1010.79
2018-01-26T08:50:04.762Z,1010.78
2018-01-26T08:51:04.758Z,1010.82
2018-01-26T08:52:04.752Z,1010.77
2018-01-26T08:53:04.750Z,1010.78
2018-01-26T08:54:04.747Z,1010.77
2018-01-26T08:55:04.742Z,1010.79
2018-01-26T08:56:04.741Z,1010.79
2018-01-26T08:57:04.735Z,1010.76
2018-01-26T08:58:04.731Z,1010.75
2018-01-26T08:59:04.731Z,1010.77
2018-01-26T09:00:04.724Z,1010.76
2018-01-26T09:01:04.718Z,1010.75
2018-01-26T09:02:04.717Z,1010.77
2018-01-26T09:03:04.714Z,1010.82
2018-01-26T09:04:04.710Z,1010.78
2018-01-26T09:05:04.705Z,1010.80
2018-01-26T09:06:04.700Z,1010.78
2018-01-26T09:07:04.698Z,1010.80
2018-01-26T09:08:04.695Z,1010.84
2018-01-26T09:09:04.691Z,1010.90
2018-01-26T09:10:04.688Z,1010.93
2018-01-26T09:11:04.683Z,1011.00
2018-01-26T09:12:04.680Z,1011.02
2018-01-26T09:13:04.676Z,1011.05
2018-01-26T09:14:04.677Z,1011.05
2018-01-26T09:15:04.670Z,1011.07
2018-01-26T09:16:04.696Z,1011.07
2018-01-26T09:17:04.663Z,1011.11
2018-01-26T09:18:04.658Z,1011.14
2018-01-26T09:19:04.656Z,1011.13
2018-01-26T09:20:04.651Z,1011.15
2018-01-26T09:21:04.650Z,1011.18
2018-01-26T09:22:04.645Z,1011.27
2018-01-26T09:23:04.640Z,1011.28
2018-01-26T09:24:04.636Z,1011.30
2018-01-26T09:25:04.633Z,1011.33
2018-01-26T09:26:04.629Z,1011.35
2018-01-26T09:27:04.627Z,1011.32
2018-01-26T09:28:04.632Z,1011.31
2018-01-26T09:29:04.624Z,1011.34
2018-01-26T09:30:04.617Z,1011.36
2018-01-26T09:31:04.613Z,1011.33
2018-01-26T09:32:04.608Z,1011.35
2018-01-26T09:33:04.610Z,1011.31
2018-01-26T09:34:04.608Z,1011.34
2018-01-26T09:35:04.598Z,1011.34
2018-01-26T09:36:04.594Z,1011.32
2018-01-26T09:37:04.591Z,1011.35
2018-01-26T09:38:04.589Z,1011.37
2018-01-26T09:39:04.584Z,1011.42
2018-01-26T09:40:04.580Z,1011.44
2018-01-26T09:41:04.582Z,1011.42
2018-01-26T09:42:04.575Z,1011.46
2018-01-26T09:43:04.573Z,1011.47
2018-01-26T09:44:04.567Z,1011.48
2018-01-26T09:45:04.586Z,1011.49
2018-01-26T09:46:04.562Z,1011.51
2018-01-26T09:47:04.557Z,1011.51
2018-01-26T09:48:04.552Z,1011.52
2018-01-26T09:49:04.549Z,1011.51
2018-01-26T09:50:04.546Z,1011.53
2018-01-26T09:51:04.543Z,1011.54
2018-01-26T09:52:04.539Z,1011.56
2018-01-26T09:53:04.535Z,1011.56
2018-01-26T09:54:04.532Z,1011.58
2018-01-26T09:55:04.524Z,1011.56
2018-01-26T09:56:04.523Z,1011.51
2018-01-26T09:57:04.521Z,1011.55
2018-01-26T09:58:04.518Z,1011.51
2018-01-26T09:59:04.517Z,1011.55
2018-01-26T10:00:04.550Z,1011.53
2018-01-26T10:01:04.507Z,1011.54
2018-01-26T10:02:04.501Z,1011.50
2018-01-26T10:03:04.498Z,1011.52
2018-01-26T10:04:04.495Z,1011.48
2018-01-26T10:05:04.491Z,1011.50
2018-01-26T10:06:04.487Z,1011.49
2018-01-26T10:07:04.488Z,1011.52
2018-01-26T10:08:04.480Z,1011.53
2018-01-26T10:09:04.478Z,1011.54
2018-01-26T10:10:04.475Z,1011.54
2018-01-26T10:11:04.473Z,1011.55
2018-01-26T10:12:04.468Z,1011.54
2018-01-26T10:13:04.461Z,1011.53
2018-01-26T10:14:04.457Z,1011.59
2018-01-26T10:15:04.456Z,1011.59
2018-01-26T10:16:04.451Z,1011.63
2018-01-26T10:17:04.447Z,1011.68
2018-01-26T10:18:04.446Z,1011.69
2018-01-26T10:19:04.442Z,1011.69
2018-01-26T10:20:04.436Z,1011.71
2018-01-26T10:21:04.434Z,1011.72
2018-01-26T10:22:04.429Z,1011.72
2018-01-26T10:23:04.425Z,1011.79
2018-01-26T10:24:04.422Z,1011.85
2018-01-26T10:25:04.416Z,1011.82
2018-01-26T10:26:04.415Z,1011.89
2018-01-26T10:27:04.414Z,1011.81
2018-01-26T10:28:04.436Z,1011.84
2018-01-26T10:29:04.405Z,1011.89
2018-01-26T10:30:04.404Z,1011.91
2018-01-26T10:31:04.396Z,1011.87
2018-01-26T10:32:04.391Z,1011.89
2018-01-26T10:33:04.388Z,1011.91
2018-01-26T10:34:04.384Z,1011.90
2018-01-26T10:35:04.380Z,1011.89
2018-01-26T10:36:04.378Z,1011.91
2018-01-26T10:37:04.373Z,1011.93
2018-01-26T10:38:04.373Z,1011.97
2018-01-26T10:39:04.370Z,1011.93
2018-01-26T10:40:04.360Z,1011.94
2018-01-26T10:41:04.358Z,1011.97
2018-01-26T10:42:04.355Z,1011.98
2018-01-26T10:43:04.354Z,1011.98
2018-01-26T10:44:04.346Z,1011.95
2018-01-26T10:45:04.344Z,1012.02
2018-01-26T10:46:04.340Z,1012.02
2018-01-26T10:47:04.335Z,1012.03
2018-01-26T10:48:04.333Z,1012.04
2018-01-26T10:49:04.327Z,1012.02
2018-01-26T10:50:04.324Z,1012.01
2018-01-26T10:51:04.319Z,1012.02
2018-01-26T10:52:04.315Z,1012.04
2018-01-26T10:53:04.316Z,1012.08
2018-01-26T10:54:04.313Z,1012.05
2018-01-26T10:55:04.304Z,1012.02
2018-01-26T10:56:04.298Z,1012.04
2018-01-26T10:57:04.296Z,1012.06
2018-01-26T10:58:04.292Z,1012.07
2018-01-26T10:59:04.318Z,1012.08
2018-01-26T11:00:04.289Z,1012.08
2018-01-26T11:01:04.280Z,1012.10
2018-01-26T11:02:04.276Z,1012.13
2018-01-26T11:03:04.275Z,1012.13
2018-01-26T11:04:04.266Z,1012.12
2018-01-26T11:05:04.262Z,1012.12
2018-01-26T11:06:04.261Z,1012.15
2018-01-26T11:07:04.256Z,1012.16
2018-01-26T11:08:04.253Z,1012.16
2018-01-26T11:09:04.266Z,1012.14
2018-01-26T11:10:04.244Z,1012.17
2018-01-26T11:11:04.240Z,1012.18
2018-01-26T11:12:04.250Z,1012.19
2018-01-26T11:13:04.279Z,1012.22
2018-01-26T11:14:04.229Z,1012.21
2018-01-26T11:15:04.227Z,1012.22
2018-01-26T11:16:04.220Z,1012.24
2018-01-26T11:17:04.216Z,1012.22
2018-01-26T11:18:04.212Z,1012.22
2018-01-26T11:19:04.209Z,1012.22
2018-01-26T11:20:04.202Z,1012.23
2018-01-26T11:21:04.199Z,1012.31
2018-01-26T11:22:04.205Z,1012.31
2018-01-26T11:23:04.195Z,1012.30
2018-01-26T11:24:04.195Z,1012.32
2018-01-26T11:25:04.182Z,1012.31
2018-01-26T11:26:04.180Z,1012.32
2018-01-26T11:27:04.179Z,1012.34
2018-01-26T11:28:04.171Z,1012.31
2018-01-26T11:29:04.167Z,1012.39
2018-01-26T11:30:04.162Z,1012.33
2018-01-26T11:31:04.160Z,1012.35
2018-01-26T11:32:04.151Z,1012.37
2018-01-26T11:33:04.152Z,1012.39
2018-01-26T11:34:04.148Z,1012.39
2018-01-26T11:35:04.144Z,1012.41
2018-01-26T11:36:04.140Z,1012.40
2018-01-26T11:37:04.138Z,1012.45
2018-01-26T11:38:04.131Z,1012.41
2018-01-26T11:39:04.128Z,1012.44
2018-01-26T11:40:04.121Z,1012.44
2018-01-26T11:41:04.119Z,1012.48
2018-01-26T11:42:04.117Z,1012.48
2018-01-26T11:43:04.113Z,1012.49
2018-01-26T11:44:04.109Z,1012.49
2018-01-26T11:45:04.105Z,1012.49
2018-01-26T11:46:04.101Z,1012.52
2018-01-26T11:47:04.099Z,1012.48
2018-01-26T11:48:04.095Z,1012.47
2018-01-26T11:49:04.089Z,1012.50
2018-01-26T11:50:04.084Z,1012.45
2018-01-26T11:51:04.085Z,1012.51
2018-01-26T11:52:04.077Z,1012.49
2018-01-26T11:53:04.073Z,1012.47
2018-01-26T11:54:04.071Z,1012.50
2018-01-26T11:55:04.067Z,1012.49
2018-01-26T11:56:04.063Z,1012.48
2018-01-26T11:57:04.059Z,1012.47
2018-01-26T11:58:04.055Z,1012.49
2018-01-26T11:59:04.052Z,1012.47
2018-01-26T12:00:04.048Z,1012.49
2018-01-26T12:01:04.045Z,1012.52
2018-01-26T12:02:04.040Z,1012.53
2018-01-26T12:03:04.034Z,1012.52
2018-01-26T12:04:04.032Z,1012.56
2018-01-26T12:05:04.029Z,1012.60